sensor_id;sensor_type;location;lat;lon;timestamp;pressure;altitude;pressure_sealevel;temperature;humidity
55550;BME280;41397;49.972;18.944;2023-03-14T00:00:59;100348.29;;;15.21;47.80
55550;BME280;41397;49.972;18.944;2023-03-14T00:04:00;100335.56;;;15.20;47.76
55550;BME280;41397;49.972;18.944;2023-03-14T00:07:03;100316.80;;;15.23;47.54
55550;BME280;41397;49.972;18.944;2023-03-14T00:10:08;100302.15;;;15.15;47.57
55550;BME280;41397;49.972;18.944;2023-03-14T00:13:10;100297.65;;;15.14;47.64
55550;BME280;41397;49.972;18.944;2023-03-14T00:16:12;100290.27;;;15.14;47.64
55550;BME280;41397;49.972;18.944;2023-03-14T00:19:14;100267.90;;;15.17;47.85
55550;BME280;41397;49.972;18.944;2023-03-14T00:22:16;100251.89;;;15.21;47.52
55550;BME280;41397;49.972;18.944;2023-03-14T00:25:17;100242.59;;;15.22;47.67
55550;BME280;41397;49.972;18.944;2023-03-14T00:28:18;100224.50;;;15.19;47.56
55550;BME280;41397;49.972;18.944;2023-03-14T00:31:20;100207.30;;;15.17;47.45
55550;BME280;41397;49.972;18.944;2023-03-14T00:34:22;100187.84;;;15.19;47.41
55550;BME280;41397;49.972;18.944;2023-03-14T00:37:23;100177.01;;;15.17;47.48
55550;BME280;41397;49.972;18.944;2023-03-14T00:40:25;100171.86;;;15.14;47.47
55550;BME280;41397;49.972;18.944;2023-03-14T00:43:26;100166.15;;;15.16;47.19
55550;BME280;41397;49.972;18.944;2023-03-14T00:46:27;100152.88;;;15.11;47.29
55550;BME280;41397;49.972;18.944;2023-03-14T00:49:29;100151.87;;;15.04;47.24
55550;BME280;41397;49.972;18.944;2023-03-14T00:52:30;100149.45;;;15.01;47.17
55550;BME280;41397;49.972;18.944;2023-03-14T00:55:36;100148.41;;;15.02;47.36
55550;BME280;41397;49.972;18.944;2023-03-14T00:58:38;100169.23;;;15.04;47.41
55550;BME280;41397;49.972;18.944;2023-03-14T01:01:40;100186.97;;;15.10;47.77
55550;BME280;41397;49.972;18.944;2023-03-14T01:04:42;100179.76;;;15.09;47.66
55550;BME280;41397;49.972;18.944;2023-03-14T01:07:44;100165.64;;;15.12;47.73
55550;BME280;41397;49.972;18.944;2023-03-14T01:10:45;100165.45;;;15.05;47.85
55550;BME280;41397;49.972;18.944;2023-03-14T01:13:47;100160.81;;;14.98;47.85
55550;BME280;41397;49.972;18.944;2023-03-14T01:16:48;100144.61;;;15.03;47.74
55550;BME280;41397;49.972;18.944;2023-03-14T01:19:49;100132.05;;;15.08;47.89
55550;BME280;41397;49.972;18.944;2023-03-14T01:22:51;100131.89;;;15.10;47.52
55550;BME280;41397;49.972;18.944;2023-03-14T01:25:52;100124.15;;;15.14;47.44
55550;BME280;41397;49.972;18.944;2023-03-14T01:28:57;100114.33;;;15.19;47.57
55550;BME280;41397;49.972;18.944;2023-03-14T01:31:59;100111.06;;;15.24;47.38
55550;BME280;41397;49.972;18.944;2023-03-14T01:35:00;100106.41;;;15.24;47.15
55550;BME280;41397;49.972;18.944;2023-03-14T01:38:02;100095.59;;;15.23;46.96
55550;BME280;41397;49.972;18.944;2023-03-14T01:41:04;100078.21;;;15.22;46.82
55550;BME280;41397;49.972;18.944;2023-03-14T01:44:08;100085.07;;;15.26;47.19
55550;BME280;41397;49.972;18.944;2023-03-14T01:47:10;100061.99;;;15.27;47.16
55550;BME280;41397;49.972;18.944;2023-03-14T01:50:12;100042.90;;;15.26;47.08
55550;BME280;41397;49.972;18.944;2023-03-14T01:53:14;100029.98;;;15.26;47.17
55550;BME280;41397;49.972;18.944;2023-03-14T01:56:17;100032.05;;;15.24;46.93
55550;BME280;41397;49.972;18.944;2023-03-14T01:59:19;100050.13;;;15.27;46.88
55550;BME280;41397;49.972;18.944;2023-03-14T02:02:21;100045.16;;;15.22;47.15
55550;BME280;41397;49.972;18.944;2023-03-14T02:05:28;100057.38;;;15.20;47.22
55550;BME280;41397;49.972;18.944;2023-03-14T02:08:33;100059.24;;;15.19;47.36
55550;BME280;41397;49.972;18.944;2023-03-14T02:11:36;100063.20;;;15.17;47.18
55550;BME280;41397;49.972;18.944;2023-03-14T02:14:39;100066.84;;;15.17;47.31
55550;BME280;41397;49.972;18.944;2023-03-14T02:17:48;100048.58;;;15.16;47.25
55550;BME280;41397;49.972;18.944;2023-03-14T02:24:15;100040.67;;;15.13;47.10
55550;BME280;41397;49.972;18.944;2023-03-14T02:27:19;100038.11;;;15.12;47.10
55550;BME280;41397;49.972;18.944;2023-03-14T02:30:27;100023.65;;;15.09;46.81
55550;BME280;41397;49.972;18.944;2023-03-14T02:33:28;100012.13;;;15.06;46.82
55550;BME280;41397;49.972;18.944;2023-03-14T02:36:30;100011.94;;;15.07;46.97
55550;BME280;41397;49.972;18.944;2023-03-14T02:39:38;100014.69;;;15.07;46.63
55550;BME280;41397;49.972;18.944;2023-03-14T02:42:40;100031.21;;;15.07;47.05
55550;BME280;41397;49.972;18.944;2023-03-14T02:45:49;100018.30;;;15.08;47.03
55550;BME280;41397;49.972;18.944;2023-03-14T02:48:58;100020.20;;;15.07;47.10
55550;BME280;41397;49.972;18.944;2023-03-14T02:52:02;100030.52;;;15.05;47.01
55550;BME280;41397;49.972;18.944;2023-03-14T02:55:05;100041.88;;;15.02;47.43
55550;BME280;41397;49.972;18.944;2023-03-14T02:58:07;100030.87;;;15.02;47.35
55550;BME280;41397;49.972;18.944;2023-03-14T03:01:09;100042.41;;;14.98;47.27
55550;BME280;41397;49.972;18.944;2023-03-14T03:04:11;100049.29;;;14.94;47.33
55550;BME280;41397;49.972;18.944;2023-03-14T03:07:12;100050.68;;;14.81;47.18
55550;BME280;41397;49.972;18.944;2023-03-14T03:10:14;100058.05;;;14.81;47.21
55550;BME280;41397;49.972;18.944;2023-03-14T03:13:15;100067.70;;;14.77;47.43
55550;BME280;41397;49.972;18.944;2023-03-14T03:16:17;100057.03;;;14.82;47.56
55550;BME280;41397;49.972;18.944;2023-03-14T03:19:18;100058.05;;;14.89;47.90
55550;BME280;41397;49.972;18.944;2023-03-14T03:22:20;100062.35;;;14.92;48.11
55550;BME280;41397;49.972;18.944;2023-03-14T03:25:21;100062.89;;;14.87;48.44
55550;BME280;41397;49.972;18.944;2023-03-14T03:28:23;100064.09;;;14.84;48.65
55550;BME280;41397;49.972;18.944;2023-03-14T03:31:25;100054.09;;;14.83;48.36
55550;BME280;41397;49.972;18.944;2023-03-14T03:34:27;100057.88;;;14.82;48.71
55550;BME280;41397;49.972;18.944;2023-03-14T03:37:33;100077.31;;;14.81;48.39
55550;BME280;41397;49.972;18.944;2023-03-14T03:40:35;100066.84;;;14.76;48.33
55550;BME280;41397;49.972;18.944;2023-03-14T03:43:36;100016.76;;;14.73;48.60
55550;BME280;41397;49.972;18.944;2023-03-14T03:46:37;100077.83;;;14.68;48.33
55550;BME280;41397;49.972;18.944;2023-03-14T03:49:39;100076.63;;;14.71;48.80
55550;BME280;41397;49.972;18.944;2023-03-14T03:52:41;100070.94;;;14.72;48.82
55550;BME280;41397;49.972;18.944;2023-03-14T03:55:42;100054.44;;;14.72;48.78
55550;BME280;41397;49.972;18.944;2023-03-14T03:58:44;100068.04;;;14.74;48.96
55550;BME280;41397;49.972;18.944;2023-03-14T04:01:46;100063.55;;;14.73;48.88
55550;BME280;41397;49.972;18.944;2023-03-14T04:04:47;100087.30;;;14.74;48.90
55550;BME280;41397;49.972;18.944;2023-03-14T04:07:49;100075.59;;;14.72;48.97
55550;BME280;41397;49.972;18.944;2023-03-14T04:10:57;100072.84;;;14.72;49.15
55550;BME280;41397;49.972;18.944;2023-03-14T04:13:58;100080.05;;;14.73;49.03
55550;BME280;41397;49.972;18.944;2023-03-14T04:17:00;100082.63;;;14.66;49.18
55550;BME280;41397;49.972;18.944;2023-03-14T04:20:01;100090.90;;;14.66;49.14
55550;BME280;41397;49.972;18.944;2023-03-14T04:23:04;100089.70;;;14.69;49.19
55550;BME280;41397;49.972;18.944;2023-03-14T04:26:05;100084.34;;;14.67;49.14
55550;BME280;41397;49.972;18.944;2023-03-14T04:29:06;100097.95;;;14.69;49.27
55550;BME280;41397;49.972;18.944;2023-03-14T04:32:08;100086.41;;;14.57;49.85
55550;BME280;41397;49.972;18.944;2023-03-14T04:35:09;100087.62;;;14.54;49.72
55550;BME280;41397;49.972;18.944;2023-03-14T04:38:12;100077.62;;;14.53;49.84
55550;BME280;41397;49.972;18.944;2023-03-14T04:41:13;100060.56;;;14.50;49.81
55550;BME280;41397;49.972;18.944;2023-03-14T04:44:15;100068.31;;;14.46;50.06
55550;BME280;41397;49.972;18.944;2023-03-14T04:47:16;100044.89;;;14.42;50.15
55550;BME280;41397;49.972;18.944;2023-03-14T04:50:18;100043.68;;;14.36;50.48
55550;BME280;41397;49.972;18.944;2023-03-14T04:53:20;100064.96;;;14.26;50.58
55550;BME280;41397;49.972;18.944;2023-03-14T04:56:21;100062.91;;;14.28;50.33
55550;BME280;41397;49.972;18.944;2023-03-14T04:59:26;100060.84;;;14.22;50.75
55550;BME280;41397;49.972;18.944;2023-03-14T05:02:27;100064.30;;;14.24;50.68
55550;BME280;41397;49.972;18.944;2023-03-14T05:05:29;100052.91;;;14.11;51.00
55550;BME280;41397;49.972;18.944;2023-03-14T05:08:30;100060.81;;;14.14;50.97
55550;BME280;41397;49.972;18.944;2023-03-14T05:11:31;100058.24;;;14.20;51.07
55550;BME280;41397;49.972;18.944;2023-03-14T05:14:33;100071.02;;;14.30;50.71
55550;BME280;41397;49.972;18.944;2023-03-14T05:17:35;100059.36;;;14.44;50.67
55550;BME280;41397;49.972;18.944;2023-03-14T05:20:36;100062.32;;;14.59;50.17
55550;BME280;41397;49.972;18.944;2023-03-14T05:23:38;100050.32;;;14.68;50.00
55550;BME280;41397;49.972;18.944;2023-03-14T05:40:07;100017.45;;;14.75;49.83
55550;BME280;41397;49.972;18.944;2023-03-14T05:50:23;100012.13;;;14.65;49.89
55550;BME280;41397;49.972;18.944;2023-03-14T05:53:25;100012.45;;;14.62;50.13
55550;BME280;41397;49.972;18.944;2023-03-14T05:56:26;100011.94;;;14.67;50.10
55550;BME280;41397;49.972;18.944;2023-03-14T05:59:28;100026.91;;;14.64;49.77
55550;BME280;41397;49.972;18.944;2023-03-14T06:02:29;100021.73;;;14.53;49.99
55550;BME280;41397;49.972;18.944;2023-03-14T06:05:30;100021.75;;;14.61;49.89
55550;BME280;41397;49.972;18.944;2023-03-14T06:08:32;100016.76;;;14.73;50.29
55550;BME280;41397;49.972;18.944;2023-03-14T06:11:35;100005.59;;;14.82;50.00
55550;BME280;41397;49.972;18.944;2023-03-14T06:14:36;99997.32;;;14.99;49.87
55550;BME280;41397;49.972;18.944;2023-03-14T06:17:38;99983.19;;;15.10;49.29
55550;BME280;41397;49.972;18.944;2023-03-14T06:20:39;99976.32;;;15.14;49.17
55550;BME280;41397;49.972;18.944;2023-03-14T06:23:41;99969.77;;;15.15;49.06
55550;BME280;41397;49.972;18.944;2023-03-14T06:26:42;99970.48;;;15.09;49.26
55550;BME280;41397;49.972;18.944;2023-03-14T06:29:44;99965.12;;;15.07;48.96
55550;BME280;41397;49.972;18.944;2023-03-14T06:32:45;99970.63;;;14.99;49.22
55550;BME280;41397;49.972;18.944;2023-03-14T06:35:47;99979.09;;;14.98;49.22
55550;BME280;41397;49.972;18.944;2023-03-14T06:38:49;99980.30;;;14.95;49.76
55550;BME280;41397;49.972;18.944;2023-03-14T06:41:50;99985.61;;;14.97;49.54
55550;BME280;41397;49.972;18.944;2023-03-14T06:44:52;99971.51;;;14.92;49.81
55550;BME280;41397;49.972;18.944;2023-03-14T06:47:55;99968.76;;;14.92;49.94
55550;BME280;41397;49.972;18.944;2023-03-14T06:50:56;99973.59;;;14.90;49.60
55550;BME280;41397;49.972;18.944;2023-03-14T06:53:58;99951.58;;;14.90;49.68
55550;BME280;41397;49.972;18.944;2023-03-14T06:56:59;99957.24;;;14.88;49.81
55550;BME280;41397;49.972;18.944;2023-03-14T07:00:04;99939.52;;;14.91;49.96
55550;BME280;41397;49.972;18.944;2023-03-14T07:03:06;99936.27;;;14.87;50.08
55550;BME280;41397;49.972;18.944;2023-03-14T07:06:07;99926.59;;;14.99;50.12
55550;BME280;41397;49.972;18.944;2023-03-14T07:09:10;99922.98;;;14.99;50.39
55550;BME280;41397;49.972;18.944;2023-03-14T07:12:21;99917.48;;;14.99;49.94
55550;BME280;41397;49.972;18.944;2023-03-14T07:15:49;99930.73;;;15.03;49.92
55550;BME280;41397;49.972;18.944;2023-03-14T07:18:50;99957.04;;;15.14;49.94
55550;BME280;41397;49.972;18.944;2023-03-14T07:21:53;99954.07;;;15.24;50.12
55550;BME280;41397;49.972;18.944;2023-03-14T07:24:55;99970.22;;;15.35;50.01
55550;BME280;41397;49.972;18.944;2023-03-14T07:27:56;99971.05;;;15.44;49.96
55550;BME280;41397;49.972;18.944;2023-03-14T07:30:58;99991.85;;;15.54;49.94
55550;BME280;41397;49.972;18.944;2023-03-14T07:34:00;99986.31;;;15.63;49.60
55550;BME280;41397;49.972;18.944;2023-03-14T07:37:01;99975.48;;;15.69;49.43
55550;BME280;41397;49.972;18.944;2023-03-14T07:40:03;99984.77;;;15.68;49.37
55550;BME280;41397;49.972;18.944;2023-03-14T07:43:08;99982.50;;;15.80;49.95
55550;BME280;41397;49.972;18.944;2023-03-14T07:46:09;99997.55;;;16.01;49.51
55550;BME280;41397;49.972;18.944;2023-03-14T07:49:11;99998.37;;;16.09;48.49
55550;BME280;41397;49.972;18.944;2023-03-14T07:52:12;99993.13;;;16.23;48.70
55550;BME280;41397;49.972;18.944;2023-03-14T07:55:14;99998.42;;;16.32;48.12
55550;BME280;41397;49.972;18.944;2023-03-14T07:58:15;99993.70;;;16.41;47.85
55550;BME280;41397;49.972;18.944;2023-03-14T08:01:17;99999.16;;;16.49;47.63
55550;BME280;41397;49.972;18.944;2023-03-14T08:04:18;100000.16;;;16.56;47.55
55550;BME280;41397;49.972;18.944;2023-03-14T08:07:20;100007.77;;;16.54;47.40
55550;BME280;41397;49.972;18.944;2023-03-14T08:10:22;99992.77;;;16.72;47.55
55550;BME280;41397;49.972;18.944;2023-03-14T08:13:23;100006.41;;;16.73;46.79
55550;BME280;41397;49.972;18.944;2023-03-14T08:16:26;99986.50;;;16.86;46.93
55550;BME280;41397;49.972;18.944;2023-03-14T08:19:28;99984.70;;;16.93;46.56
55550;BME280;41397;49.972;18.944;2023-03-14T08:22:29;99984.08;;;16.83;46.72
55550;BME280;41397;49.972;18.944;2023-03-14T08:25:30;99981.69;;;16.80;46.97
55550;BME280;41397;49.972;18.944;2023-03-14T08:28:33;99985.14;;;16.82;47.00
55550;BME280;41397;49.972;18.944;2023-03-14T08:31:35;100000.65;;;16.83;47.29
55550;BME280;41397;49.972;18.944;2023-03-14T08:34:36;100008.45;;;16.79;47.49
55550;BME280;41397;49.972;18.944;2023-03-14T08:37:38;100008.45;;;16.79;47.35
55550;BME280;41397;49.972;18.944;2023-03-14T08:40:40;100000.58;;;16.68;47.25
55550;BME280;41397;49.972;18.944;2023-03-14T08:43:43;99987.08;;;16.73;47.84
55550;BME280;41397;49.972;18.944;2023-03-14T08:46:44;99987.02;;;16.58;47.73
55550;BME280;41397;49.972;18.944;2023-03-14T08:49:46;99997.98;;;16.67;47.88
55550;BME280;41397;49.972;18.944;2023-03-14T08:52:47;100002.48;;;16.68;48.02
55550;BME280;41397;49.972;18.944;2023-03-14T08:55:53;100011.20;;;16.56;47.92
55550;BME280;41397;49.972;18.944;2023-03-14T09:02:26;100007.02;;;16.60;48.48
55550;BME280;41397;49.972;18.944;2023-03-14T09:05:28;100023.41;;;16.62;48.48
55550;BME280;41397;49.972;18.944;2023-03-14T09:08:29;100031.17;;;16.58;48.70
55550;BME280;41397;49.972;18.944;2023-03-14T09:11:31;100034.08;;;16.65;49.34
55550;BME280;41397;49.972;18.944;2023-03-14T09:14:32;100035.47;;;16.61;48.60
55550;BME280;41397;49.972;18.944;2023-03-14T09:17:34;100018.98;;;16.76;49.30
55550;BME280;41397;49.972;18.944;2023-03-14T09:20:35;100037.29;;;16.77;48.68
55550;BME280;41397;49.972;18.944;2023-03-14T09:23:37;100035.31;;;16.85;49.69
55550;BME280;41397;49.972;18.944;2023-03-14T09:26:38;100047.84;;;16.96;49.15
55550;BME280;41397;49.972;18.944;2023-03-14T09:29:39;100048.14;;;17.01;49.17
55550;BME280;41397;49.972;18.944;2023-03-14T09:32:41;100037.77;;;17.03;49.35
55550;BME280;41397;49.972;18.944;2023-03-14T09:35:43;100051.24;;;17.21;48.49
55550;BME280;41397;49.972;18.944;2023-03-14T09:38:44;100057.20;;;17.33;48.50
55550;BME280;41397;49.972;18.944;2023-03-14T09:41:47;100044.32;;;17.40;48.35
55550;BME280;41397;49.972;18.944;2023-03-14T10:08:17;100075.12;;;17.90;47.87
55550;BME280;41397;49.972;18.944;2023-03-14T10:11:19;100075.30;;;17.88;47.55
55550;BME280;41397;49.972;18.944;2023-03-14T10:14:33;100074.06;;;17.91;47.68
55550;BME280;41397;49.972;18.944;2023-03-14T10:17:42;100081.68;;;17.89;47.94
55550;BME280;41397;49.972;18.944;2023-03-14T10:20:46;100079.51;;;17.84;48.26
55550;BME280;41397;49.972;18.944;2023-03-14T10:23:48;100089.10;;;17.73;48.25
55550;BME280;41397;49.972;18.944;2023-03-14T10:27:02;100086.68;;;17.56;48.50
55550;BME280;41397;49.972;18.944;2023-03-14T10:30:01;100082.85;;;17.57;48.46
55550;BME280;41397;49.972;18.944;2023-03-14T10:33:31;100073.33;;;17.59;48.31
55550;BME280;41397;49.972;18.944;2023-03-14T10:36:23;100075.23;;;17.44;48.36
55550;BME280;41397;49.972;18.944;2023-03-14T10:39:30;100084.75;;;17.41;48.74
55550;BME280;41397;49.972;18.944;2023-03-14T10:42:39;100084.16;;;17.46;49.01
55550;BME280;41397;49.972;18.944;2023-03-14T10:45:44;100075.70;;;17.47;49.15
55550;BME280;41397;49.972;18.944;2023-03-14T10:48:54;100078.30;;;17.49;49.22
55550;BME280;41397;49.972;18.944;2023-03-14T10:52:01;100083.62;;;17.50;49.24
55550;BME280;41397;49.972;18.944;2023-03-14T10:58:41;100081.60;;;17.44;49.88
55550;BME280;41397;49.972;18.944;2023-03-14T11:05:06;100086.53;;;17.34;49.66
55550;BME280;41397;49.972;18.944;2023-03-14T11:08:17;100095.75;;;17.26;49.78
55550;BME280;41397;49.972;18.944;2023-03-14T11:11:26;100100.63;;;17.24;50.04
55550;BME280;41397;49.972;18.944;2023-03-14T11:14:36;100094.29;;;17.16;49.81
55550;BME280;41397;49.972;18.944;2023-03-14T11:17:59;100092.75;;;17.13;50.17
55550;BME280;41397;49.972;18.944;2023-03-14T11:27:54;100068.09;;;17.12;50.33
55550;BME280;41397;49.972;18.944;2023-03-14T11:34:28;100081.70;;;17.13;50.42
55550;BME280;41397;49.972;18.944;2023-03-14T11:40:44;100075.24;;;17.21;50.41
55550;BME280;41397;49.972;18.944;2023-03-14T11:43:49;100075.77;;;17.24;50.57
55550;BME280;41397;49.972;18.944;2023-03-14T11:47:05;100082.23;;;17.31;50.57
55550;BME280;41397;49.972;18.944;2023-03-14T11:50:17;100084.62;;;17.35;50.60
55550;BME280;41397;49.972;18.944;2023-03-14T11:56:39;100080.33;;;17.32;50.40
55550;BME280;41397;49.972;18.944;2023-03-14T12:06:20;100059.66;;;17.28;50.65
55550;BME280;41397;49.972;18.944;2023-03-14T12:09:25;100052.41;;;17.27;50.59
55550;BME280;41397;49.972;18.944;2023-03-14T12:12:27;100049.66;;;17.27;50.63
55550;BME280;41397;49.972;18.944;2023-03-14T12:15:30;100040.87;;;17.23;51.00
55550;BME280;41397;49.972;18.944;2023-03-14T12:18:37;100041.07;;;17.22;50.76
55550;BME280;41397;49.972;18.944;2023-03-14T12:21:55;100041.63;;;17.17;51.00
55550;BME280;41397;49.972;18.944;2023-03-14T12:24:56;100038.07;;;17.08;51.40
55550;BME280;41397;49.972;18.944;2023-03-14T12:28:51;100034.16;;;17.03;51.66
55550;BME280;41397;49.972;18.944;2023-03-14T12:34:33;100039.82;;;16.86;52.61
55550;BME280;41397;49.972;18.944;2023-03-14T12:37:42;100023.48;;;16.77;53.08
55550;BME280;41397;49.972;18.944;2023-03-14T12:40:58;100032.48;;;16.71;53.43
55550;BME280;41397;49.972;18.944;2023-03-14T12:44:52;100026.10;;;16.70;53.84
55550;BME280;41397;49.972;18.944;2023-03-14T12:50:42;100043.58;;;16.62;55.41
55550;BME280;41397;49.972;18.944;2023-03-14T12:53:53;100038.97;;;16.55;55.63
55550;BME280;41397;49.972;18.944;2023-03-14T12:57:10;100044.74;;;16.45;56.24
55550;BME280;41397;49.972;18.944;2023-03-14T13:00:18;100039.22;;;16.45;56.32
55550;BME280;41397;49.972;18.944;2023-03-14T13:03:25;100034.55;;;16.46;56.44
55550;BME280;41397;49.972;18.944;2023-03-14T13:09:53;100044.91;;;16.43;57.01
55550;BME280;41397;49.972;18.944;2023-03-14T13:13:03;100050.27;;;16.45;56.82
55550;BME280;41397;49.972;18.944;2023-03-14T13:16:04;100053.87;;;16.46;57.17
55550;BME280;41397;49.972;18.944;2023-03-14T13:22:27;100054.24;;;16.42;57.24
55550;BME280;41397;49.972;18.944;2023-03-14T13:25:35;100060.98;;;16.40;57.77
55550;BME280;41397;49.972;18.944;2023-03-14T13:28:37;100072.38;;;16.37;57.84
55550;BME280;41397;49.972;18.944;2023-03-14T14:19:06;100090.69;;;16.30;60.12
55550;BME280;41397;49.972;18.944;2023-03-14T14:32:55;100076.48;;;16.10;60.97
55550;BME280;41397;49.972;18.944;2023-03-14T15:06:55;100064.68;;;15.76;62.87
55550;BME280;41397;49.972;18.944;2023-03-14T15:23:40;100068.49;;;15.59;63.57
55550;BME280;41397;49.972;18.944;2023-03-14T15:30:22;100070.40;;;15.59;63.70
55550;BME280;41397;49.972;18.944;2023-03-14T15:37:02;100079.02;;;15.56;64.25
55550;BME280;41397;49.972;18.944;2023-03-14T15:40:13;100068.53;;;15.43;65.11
55550;BME280;41397;49.972;18.944;2023-03-14T15:43:15;100066.98;;;15.40;65.48
55550;BME280;41397;49.972;18.944;2023-03-14T15:46:18;100053.56;;;15.37;65.68
55550;BME280;41397;49.972;18.944;2023-03-14T15:49:23;100060.29;;;15.26;65.71
55550;BME280;41397;49.972;18.944;2023-03-14T15:52:24;100069.24;;;15.28;65.12
55550;BME280;41397;49.972;18.944;2023-03-14T15:55:37;100056.16;;;15.30;64.98
55550;BME280;41397;49.972;18.944;2023-03-14T15:58:55;100043.41;;;15.29;64.87
55550;BME280;41397;49.972;18.944;2023-03-14T16:01:58;100023.42;;;15.27;64.27
55550;BME280;41397;49.972;18.944;2023-03-14T16:08:22;100005.71;;;15.22;64.08
55550;BME280;41397;49.972;18.944;2023-03-14T16:11:29;100012.27;;;15.21;64.34
55550;BME280;41397;49.972;18.944;2023-03-14T16:14:30;100005.38;;;15.17;64.49
55550;BME280;41397;49.972;18.944;2023-03-14T16:17:32;100009.86;;;15.18;64.80
55550;BME280;41397;49.972;18.944;2023-03-14T16:23:54;100001.77;;;15.08;65.59
55550;BME280;41397;49.972;18.944;2023-03-14T16:30:30;99999.57;;;15.03;66.07
55550;BME280;41397;49.972;18.944;2023-03-14T16:33:33;100017.80;;;14.96;66.43
55550;BME280;41397;49.972;18.944;2023-03-14T16:36:35;100038.12;;;14.87;67.23
55550;BME280;41397;49.972;18.944;2023-03-14T16:42:19;100046.52;;;14.85;67.09
55550;BME280;41397;49.972;18.944;2023-03-14T16:52:29;100047.58;;;14.84;66.73
55550;BME280;41397;49.972;18.944;2023-03-14T16:55:31;100046.38;;;14.87;66.74
55550;BME280;41397;49.972;18.944;2023-03-14T17:01:52;100046.19;;;14.88;66.44
55550;BME280;41397;49.972;18.944;2023-03-14T17:04:53;100043.27;;;14.90;66.33
55550;BME280;41397;49.972;18.944;2023-03-14T17:07:55;100044.13;;;14.91;66.26
55550;BME280;41397;49.972;18.944;2023-03-14T17:10:56;100044.48;;;14.87;66.07
55550;BME280;41397;49.972;18.944;2023-03-14T17:14:02;100040.17;;;14.85;66.04
55550;BME280;41397;49.972;18.944;2023-03-14T17:17:03;100037.23;;;14.86;65.94
55550;BME280;41397;49.972;18.944;2023-03-14T17:20:06;100046.38;;;14.87;65.98
55550;BME280;41397;49.972;18.944;2023-03-14T17:23:09;100058.40;;;14.86;65.88
55550;BME280;41397;49.972;18.944;2023-03-14T17:26:15;100062.89;;;14.87;65.84
55550;BME280;41397;49.972;18.944;2023-03-14T17:29:22;100062.00;;;14.86;65.73
55550;BME280;41397;49.972;18.944;2023-03-14T17:32:29;100064.60;;;14.88;65.37
55550;BME280;41397;49.972;18.944;2023-03-14T17:35:36;100058.24;;;14.87;65.29
55550;BME280;41397;49.972;18.944;2023-03-14T18:16:50;100109.84;;;14.85;64.60
55550;BME280;41397;49.972;18.944;2023-03-14T18:43:51;100142.33;;;14.65;63.52
55550;BME280;41397;49.972;18.944;2023-03-14T18:50:53;100145.91;;;14.58;63.74
55550;BME280;41397;49.972;18.944;2023-03-14T18:54:01;100151.55;;;14.56;63.64
55550;BME280;41397;49.972;18.944;2023-03-14T18:57:03;100156.55;;;14.53;63.73
55550;BME280;41397;49.972;18.944;2023-03-14T19:00:06;100153.91;;;14.51;63.58
55550;BME280;41397;49.972;18.944;2023-03-14T19:03:15;100154.96;;;14.50;63.56
55550;BME280;41397;49.972;18.944;2023-03-14T19:06:17;100164.07;;;14.51;63.47
55550;BME280;41397;49.972;18.944;2023-03-14T19:09:27;100167.00;;;14.49;63.44
55550;BME280;41397;49.972;18.944;2023-03-14T19:12:37;100170.10;;;14.46;63.52
55550;BME280;41397;49.972;18.944;2023-03-14T19:15:39;100178.34;;;14.46;63.64
55550;BME280;41397;49.972;18.944;2023-03-14T19:18:43;100177.11;;;14.40;63.41
55550;BME280;41397;49.972;18.944;2023-03-14T19:21:44;100176.42;;;14.38;63.66
55550;BME280;41397;49.972;18.944;2023-03-14T19:24:46;100173.29;;;14.33;63.76
55550;BME280;41397;49.972;18.944;2023-03-14T19:27:48;100170.33;;;14.27;63.85
55550;BME280;41397;49.972;18.944;2023-03-14T19:30:54;100170.84;;;14.22;64.12
55550;BME280;41397;49.972;18.944;2023-03-14T19:34:02;100159.29;;;14.18;64.38
55550;BME280;41397;49.972;18.944;2023-03-14T19:37:04;100162.21;;;14.17;64.39
55550;BME280;41397;49.972;18.944;2023-03-14T19:43:37;100174.21;;;14.08;64.54
55550;BME280;41397;49.972;18.944;2023-03-14T19:46:38;100178.15;;;14.05;64.38
55550;BME280;41397;49.972;18.944;2023-03-14T19:49:42;100179.48;;;14.01;64.20
55550;BME280;41397;49.972;18.944;2023-03-14T19:52:52;100191.50;;;14.00;64.39
55550;BME280;41397;49.972;18.944;2023-03-14T20:06:48;100185.00;;;13.75;64.41
55550;BME280;41397;49.972;18.944;2023-03-14T20:10:08;100187.74;;;13.75;64.35
55550;BME280;41397;49.972;18.944;2023-03-14T20:16:52;100190.25;;;13.68;64.22
55550;BME280;41397;49.972;18.944;2023-03-14T20:19:59;100178.88;;;13.63;64.29
55550;BME280;41397;49.972;18.944;2023-03-14T20:26:49;100180.23;;;13.59;64.21
55550;BME280;41397;49.972;18.944;2023-03-14T20:33:53;100205.22;;;13.48;64.39
55550;BME280;41397;49.972;18.944;2023-03-14T20:37:01;100202.15;;;13.51;64.20
55550;BME280;41397;49.972;18.944;2023-03-14T20:43:36;100190.30;;;13.50;63.96
55550;BME280;41397;49.972;18.944;2023-03-14T20:53:41;100206.72;;;13.42;63.78
55550;BME280;41397;49.972;18.944;2023-03-14T21:00:18;100214.38;;;13.39;63.80
55550;BME280;41397;49.972;18.944;2023-03-14T21:03:24;100206.46;;;13.36;63.79
55550;BME280;41397;49.972;18.944;2023-03-14T21:06:26;100203.19;;;13.32;63.58
55550;BME280;41397;49.972;18.944;2023-03-14T21:09:45;100202.01;;;13.35;63.64
55550;BME280;41397;49.972;18.944;2023-03-14T21:12:54;100214.56;;;13.37;63.66
55550;BME280;41397;49.972;18.944;2023-03-14T21:16:02;100214.56;;;13.37;63.49
55550;BME280;41397;49.972;18.944;2023-03-14T21:19:07;100208.36;;;13.35;63.60
55550;BME280;41397;49.972;18.944;2023-03-14T21:22:08;100213.99;;;13.33;63.29